createdAt,value
2018-03-27T00:00:07.587Z,14.80
2018-03-27T00:02:35.888Z,14.60
2018-03-27T00:05:04.200Z,15.37
2018-03-27T00:07:32.470Z,14.15
2018-03-27T00:10:00.824Z,15.00
2018-03-27T00:12:29.116Z,15.10
2018-03-27T00:14:57.405Z,15.20
2018-03-27T00:17:25.680Z,14.68
2018-03-27T00:19:54.022Z,14.77
2018-03-27T00:22:22.312Z,14.57
2018-03-27T00:24:50.623Z,14.65
2018-03-27T00:27:18.362Z,14.83
2018-03-27T00:29:58.495Z,14.50
2018-03-27T00:32:38.484Z,15.60
2018-03-27T00:35:18.521Z,14.20
2018-03-27T00:37:58.518Z,13.73
2018-03-27T00:40:38.600Z,14.50
2018-03-27T00:43:07.621Z,15.10
2018-03-27T00:45:35.916Z,14.10
2018-03-27T00:48:05.054Z,15.13
2018-03-27T00:50:33.387Z,14.70
2018-03-27T00:53:01.717Z,15.00
2018-03-27T00:55:30.018Z,16.63
2018-03-27T00:57:58.387Z,15.25
2018-03-27T01:00:25.978Z,15.53
2018-03-27T01:02:54.107Z,13.70
2018-03-27T01:05:22.392Z,14.85
2018-03-27T01:07:50.757Z,14.80
2018-03-27T01:10:19.095Z,14.75
2018-03-27T01:12:47.444Z,14.57
2018-03-27T01:15:15.699Z,13.00
2018-03-27T01:17:44.023Z,14.50
2018-03-27T01:20:12.302Z,13.63
2018-03-27T01:22:40.615Z,14.17
2018-03-27T01:25:08.892Z,13.87
2018-03-27T01:27:37.187Z,14.30
2018-03-27T01:30:05.467Z,14.47
2018-03-27T01:32:33.827Z,13.73
2018-03-27T01:35:02.211Z,13.70
2018-03-27T01:37:30.461Z,13.43
2018-03-27T01:39:58.744Z,14.90
2018-03-27T01:42:27.059Z,14.90
2018-03-27T01:44:55.367Z,14.10
2018-03-27T01:47:23.656Z,13.60
2018-03-27T01:49:51.952Z,13.60
2018-03-27T01:52:20.251Z,14.38
2018-03-27T01:54:48.551Z,13.87
2018-03-27T01:57:16.855Z,13.83
2018-03-27T01:59:45.164Z,13.40
2018-03-27T02:02:13.442Z,14.50
2018-03-27T02:04:41.756Z,14.30
2018-03-27T02:07:10.100Z,14.27
2018-03-27T02:09:38.471Z,14.03
2018-03-27T02:12:12.399Z,13.53
2018-03-27T02:14:46.179Z,13.70
2018-03-27T02:17:20.027Z,13.18
2018-03-27T02:19:53.998Z,14.20
2018-03-27T02:22:22.279Z,14.02
2018-03-27T02:24:50.628Z,13.88
2018-03-27T02:27:18.948Z,14.03
2018-03-27T02:29:47.290Z,13.80
2018-03-27T02:32:15.568Z,13.30
2018-03-27T02:34:43.859Z,12.93
2018-03-27T02:37:12.144Z,12.90
2018-03-27T02:39:40.495Z,13.53
2018-03-27T02:42:08.776Z,13.40
2018-03-27T02:44:37.086Z,12.17
2018-03-27T02:47:05.470Z,12.87
2018-03-27T02:49:33.733Z,12.48
2018-03-27T02:52:02.021Z,13.20
2018-03-27T02:54:30.292Z,13.60
2018-03-27T02:56:58.649Z,13.50
2018-03-27T02:59:26.998Z,13.10
2018-03-27T03:01:55.304Z,12.87
2018-03-27T03:04:26.954Z,13.27
2018-03-27T03:06:55.252Z,12.00
2018-03-27T03:09:23.556Z,12.40
2018-03-27T03:11:51.899Z,12.07
2018-03-27T03:14:20.247Z,11.55
2018-03-27T03:16:48.548Z,12.53
2018-03-27T03:19:16.836Z,12.60
2018-03-27T03:21:45.144Z,12.37
2018-03-27T03:24:13.451Z,11.80
2018-03-27T03:26:41.752Z,12.70
2018-03-27T03:29:10.039Z,13.07
2018-03-27T03:31:38.357Z,12.33
2018-03-27T03:34:06.644Z,11.97
2018-03-27T03:36:34.975Z,11.90
2018-03-27T03:39:03.324Z,12.03
2018-03-27T03:41:31.733Z,12.53
2018-03-27T03:44:00.024Z,12.60
2018-03-27T03:46:28.303Z,11.40
2018-03-27T03:48:56.644Z,12.20
2018-03-27T03:51:24.917Z,10.50
2018-03-27T03:53:53.224Z,10.40
2018-03-27T03:56:21.533Z,11.20
2018-03-27T03:58:49.839Z,10.77
2018-03-27T04:01:18.128Z,11.50
2018-03-27T04:03:46.434Z,11.90
2018-03-27T04:06:15.648Z,10.90
2018-03-27T04:08:43.992Z,12.73
2018-03-27T04:11:12.263Z,11.43
2018-03-27T04:13:40.646Z,12.10
2018-03-27T04:16:08.985Z,12.03
2018-03-27T04:18:37.282Z,12.33
2018-03-27T04:21:05.579Z,11.15
2018-03-27T04:23:33.884Z,11.07
2018-03-27T04:26:02.199Z,11.23
2018-03-27T04:28:30.503Z,10.80
2018-03-27T04:30:58.809Z,11.23
2018-03-27T04:33:27.125Z,11.20
2018-03-27T04:35:55.395Z,11.53
2018-03-27T04:38:24.046Z,10.60
2018-03-27T04:40:52.308Z,11.40
2018-03-27T04:43:20.634Z,10.48
2018-03-27T04:45:49.499Z,10.90
2018-03-27T04:48:18.229Z,11.83
2018-03-27T04:50:46.549Z,11.00
2018-03-27T04:53:14.844Z,11.45
2018-03-27T04:55:43.227Z,11.90
2018-03-27T04:58:11.514Z,12.10
2018-03-27T05:00:39.868Z,11.33
2018-03-27T05:03:08.182Z,11.50
2018-03-27T05:05:36.484Z,11.00
2018-03-27T05:08:07.164Z,12.02
2018-03-27T05:10:35.456Z,11.37
2018-03-27T05:13:04.777Z,11.78
2018-03-27T05:15:33.058Z,11.00
2018-03-27T05:18:01.353Z,11.33
2018-03-27T05:20:29.692Z,10.77
2018-03-27T05:22:58.016Z,10.40
2018-03-27T05:25:26.343Z,11.87
2018-03-27T05:27:54.800Z,11.67
2018-03-27T05:30:23.132Z,11.07
2018-03-27T05:32:52.667Z,10.10
2018-03-27T05:35:21.028Z,10.00
2018-03-27T05:37:49.285Z,10.50
2018-03-27T05:40:17.647Z,11.20
2018-03-27T05:42:46.847Z,11.20
2018-03-27T05:45:16.339Z,13.40
2018-03-27T05:47:44.632Z,11.00
2018-03-27T05:50:12.937Z,10.40
2018-03-27T05:52:41.311Z,10.77
2018-03-27T05:55:09.649Z,11.57
2018-03-27T05:57:37.940Z,10.37
2018-03-27T06:00:06.212Z,11.13
2018-03-27T06:02:34.601Z,11.20
2018-03-27T06:05:02.931Z,12.23
2018-03-27T06:07:31.244Z,11.97
2018-03-27T06:10:00.333Z,11.45
2018-03-27T06:12:28.621Z,10.53
2018-03-27T06:14:56.908Z,12.20
2018-03-27T06:17:25.217Z,11.10
2018-03-27T06:19:53.554Z,10.77
2018-03-27T06:22:21.823Z,11.10
2018-03-27T06:24:50.102Z,11.30
2018-03-27T06:27:18.671Z,12.13
2018-03-27T06:29:47.005Z,11.83
2018-03-27T06:32:15.492Z,12.40
2018-03-27T06:34:44.415Z,12.23
2018-03-27T06:37:12.735Z,12.88
2018-03-27T06:39:41.065Z,13.23
2018-03-27T06:42:09.450Z,12.33
2018-03-27T06:44:43.552Z,12.90
2018-03-27T06:47:13.605Z,12.90
2018-03-27T06:49:41.861Z,13.40
2018-03-27T06:52:10.135Z,13.35
2018-03-27T06:54:38.470Z,16.60
2018-03-27T06:57:06.780Z,15.60
2018-03-27T06:59:35.712Z,15.07
2018-03-27T07:02:04.528Z,17.20
2018-03-27T07:04:33.089Z,19.90
2018-03-27T07:07:01.706Z,18.17
2018-03-27T07:09:30.021Z,15.40
2018-03-27T07:12:03.589Z,16.07
2018-03-27T07:14:31.963Z,15.40
2018-03-27T07:17:00.250Z,16.53
2018-03-27T07:19:28.574Z,21.10
2018-03-27T07:21:56.881Z,17.47
2018-03-27T07:24:25.216Z,17.33
2018-03-27T07:26:53.528Z,17.40
2018-03-27T07:29:22.152Z,18.58
2018-03-27T07:31:50.464Z,18.33
2018-03-27T07:34:18.859Z,18.77
2018-03-27T07:36:47.244Z,21.27
2018-03-27T07:39:16.063Z,20.17
2018-03-27T07:41:44.798Z,21.98
2018-03-27T07:44:13.296Z,22.83
2018-03-27T07:46:41.603Z,22.23
2018-03-27T07:49:09.910Z,21.33
2018-03-27T07:51:38.192Z,23.60
2018-03-27T07:54:06.553Z,22.87
2018-03-27T07:56:34.843Z,22.07
2018-03-27T07:59:03.210Z,22.70
2018-03-27T08:01:31.831Z,23.80
2018-03-27T08:04:00.156Z,19.50
2018-03-27T08:06:28.511Z,22.17
2018-03-27T08:08:56.831Z,22.80
2018-03-27T08:11:25.154Z,22.93
2018-03-27T08:13:54.309Z,21.50
2018-03-27T08:16:23.940Z,20.42
2018-03-27T08:18:52.306Z,21.37
2018-03-27T08:21:21.468Z,21.63
2018-03-27T08:23:49.783Z,22.60
2018-03-27T08:26:19.174Z,21.95
2018-03-27T08:28:48.593Z,21.97
2018-03-27T08:31:16.931Z,22.67
2018-03-27T08:33:45.220Z,21.33
2018-03-27T08:36:13.657Z,22.02
2018-03-27T08:38:41.932Z,21.50
2018-03-27T08:41:10.991Z,22.60
2018-03-27T08:43:39.267Z,21.47
2018-03-27T08:46:08.218Z,21.17
2018-03-27T08:48:36.650Z,21.13
2018-03-27T08:51:05.207Z,21.05
2018-03-27T08:53:33.584Z,20.67
2018-03-27T08:56:02.572Z,21.07
2018-03-27T08:58:30.854Z,21.63
2018-03-27T09:00:59.683Z,21.83
2018-03-27T09:03:28.169Z,21.23
2018-03-27T09:05:56.558Z,21.50
2018-03-27T09:08:24.900Z,19.40
2018-03-27T09:10:53.184Z,20.20
2018-03-27T09:13:21.529Z,21.27
2018-03-27T09:15:53.299Z,21.30
2018-03-27T09:18:21.660Z,20.20
2018-03-27T09:20:49.942Z,21.60
2018-03-27T09:23:18.323Z,20.08
2018-03-27T09:25:47.891Z,21.70
2018-03-27T09:28:16.517Z,19.80
2018-03-27T09:30:45.751Z,20.30
2018-03-27T09:33:14.164Z,19.10
2018-03-27T09:35:42.599Z,18.27
2018-03-27T09:38:10.958Z,19.70
2018-03-27T09:40:39.282Z,18.20
2018-03-27T09:43:08.251Z,17.90
2018-03-27T09:45:36.557Z,19.47
2018-03-27T09:48:05.620Z,16.45
2018-03-27T09:50:33.926Z,17.03
2018-03-27T09:53:02.879Z,16.20
2018-03-27T09:55:31.220Z,16.40
2018-03-27T09:57:59.877Z,18.13
2018-03-27T10:00:34.783Z,18.17
2018-03-27T10:03:03.068Z,16.00
2018-03-27T10:05:31.443Z,17.50
2018-03-27T10:08:00.319Z,16.13
2018-03-27T10:10:29.857Z,17.10
2018-03-27T10:12:58.180Z,16.67
2018-03-27T10:15:26.536Z,17.17
2018-03-27T10:17:54.961Z,17.20
2018-03-27T10:20:23.304Z,15.90
2018-03-27T10:22:52.108Z,16.50
2018-03-27T10:25:20.534Z,16.40
2018-03-27T10:27:49.444Z,15.77
2018-03-27T10:30:17.737Z,16.40
2018-03-27T10:32:46.090Z,16.50
2018-03-27T10:35:14.940Z,16.20
2018-03-27T10:37:43.247Z,14.98
2018-03-27T10:40:11.586Z,15.83
2018-03-27T10:42:39.899Z,17.10
2018-03-27T10:45:08.260Z,16.07
2018-03-27T10:47:36.556Z,15.63
2018-03-27T10:50:05.372Z,17.37
2018-03-27T10:52:33.722Z,14.95
2018-03-27T10:55:02.762Z,16.47
2018-03-27T10:57:31.136Z,16.20
2018-03-27T10:59:59.462Z,14.90
2018-03-27T11:02:27.849Z,12.27
2018-03-27T11:04:56.683Z,15.70
2018-03-27T11:07:25.685Z,15.93
2018-03-27T11:09:54.018Z,15.55
2018-03-27T11:12:22.387Z,14.80
2018-03-27T11:14:50.709Z,14.07
2018-03-27T11:17:19.765Z,15.50
2018-03-27T11:19:48.259Z,15.43
2018-03-27T11:22:16.837Z,15.40
2018-03-27T11:24:45.098Z,15.83
2018-03-27T11:27:13.471Z,16.13
2018-03-27T11:29:41.873Z,16.20
2018-03-27T11:32:10.516Z,15.57
2018-03-27T11:34:38.810Z,15.87
2018-03-27T11:37:10.576Z,15.20
2018-03-27T11:39:42.096Z,14.07
2018-03-27T11:42:11.628Z,17.45
2018-03-27T11:44:40.240Z,15.37
2018-03-27T11:47:09.670Z,16.47
2018-03-27T11:49:38.324Z,16.13
2018-03-27T11:52:09.172Z,17.30
2018-03-27T11:54:37.600Z,16.30
2018-03-27T11:57:06.552Z,15.40
2018-03-27T11:59:34.852Z,18.00
2018-03-27T12:02:03.600Z,16.57
2018-03-27T12:04:32.193Z,17.33
2018-03-27T12:07:04.396Z,15.47
2018-03-27T12:09:33.736Z,15.70
2018-03-27T12:12:02.086Z,15.37
2018-03-27T12:14:31.130Z,16.90
2018-03-27T12:16:59.494Z,16.40
2018-03-27T12:19:27.929Z,15.90
2018-03-27T12:21:58.248Z,16.10
2018-03-27T12:24:26.645Z,15.90
2018-03-27T12:26:54.971Z,16.53
2018-03-27T12:29:23.317Z,16.47
2018-03-27T12:31:51.628Z,16.50
2018-03-27T12:34:20.259Z,15.00
2018-03-27T12:36:48.639Z,16.90
2018-03-27T12:39:17.027Z,17.63
2018-03-27T12:41:45.366Z,15.87
2018-03-27T12:44:13.739Z,17.15
2018-03-27T12:46:42.363Z,16.57
2018-03-27T12:49:11.247Z,17.30
2018-03-27T12:51:39.546Z,17.23
2018-03-27T12:54:07.988Z,17.10
2018-03-27T12:56:36.343Z,15.93
2018-03-27T12:59:05.698Z,16.98
2018-03-27T13:01:33.966Z,16.90
2018-03-27T13:04:02.372Z,17.07
2018-03-27T13:06:30.940Z,17.10
2018-03-27T13:08:59.256Z,16.53
2018-03-27T13:11:27.604Z,16.67
2018-03-27T13:13:55.874Z,17.17
2018-03-27T13:16:24.267Z,17.47
2018-03-27T13:18:52.748Z,17.67
2018-03-27T13:21:23.273Z,17.40
2018-03-27T13:23:51.674Z,17.27
2018-03-27T13:26:20.252Z,16.35
2018-03-27T13:28:49.271Z,15.63
2018-03-27T13:31:17.631Z,15.97
2018-03-27T13:33:45.941Z,17.30
2018-03-27T13:36:14.286Z,16.67
2018-03-27T13:38:42.574Z,16.63
2018-03-27T13:41:10.898Z,16.00
2018-03-27T13:43:39.204Z,17.10
2018-03-27T13:46:07.565Z,15.47
2018-03-27T13:48:35.888Z,15.37
2018-03-27T13:51:04.332Z,15.35
2018-03-27T13:53:32.724Z,16.03
2018-03-27T13:56:01.097Z,15.80
2018-03-27T13:58:29.526Z,16.80
2018-03-27T14:00:57.853Z,15.80
2018-03-27T14:03:26.151Z,16.50
2018-03-27T14:05:54.671Z,14.83
2018-03-27T14:08:23.755Z,16.47
2018-03-27T14:10:53.262Z,14.73
2018-03-27T14:13:21.700Z,14.87
2018-03-27T14:15:50.748Z,17.20
2018-03-27T14:18:19.108Z,17.58
2018-03-27T14:20:47.422Z,16.13
2018-03-27T14:23:15.730Z,16.80
2018-03-27T14:25:44.027Z,17.17
2018-03-27T14:28:15.986Z,17.20
2018-03-27T14:30:44.998Z,16.80
2018-03-27T14:33:13.311Z,17.10
2018-03-27T14:35:41.633Z,17.07
2018-03-27T14:38:10.062Z,17.40
2018-03-27T14:40:39.169Z,18.15
2018-03-27T14:43:07.616Z,17.87
2018-03-27T14:45:36.234Z,17.83
2018-03-27T14:48:05.126Z,19.73
2018-03-27T14:50:33.437Z,19.27
2018-03-27T14:53:01.842Z,19.87
2018-03-27T14:55:30.108Z,18.80
2018-03-27T14:57:59.295Z,17.63
2018-03-27T15:00:27.648Z,17.40
2018-03-27T15:02:56.524Z,17.20
2018-03-27T15:05:25.367Z,19.10
2018-03-27T15:07:55.417Z,18.53
2018-03-27T15:10:23.795Z,20.95
2018-03-27T15:12:52.129Z,18.90
2018-03-27T15:15:21.020Z,18.90
2018-03-27T15:17:49.354Z,19.63
2018-03-27T15:20:17.781Z,18.43
2018-03-27T15:22:46.192Z,18.83
2018-03-27T15:25:14.744Z,18.70
2018-03-27T15:27:43.161Z,20.00
2018-03-27T15:30:11.569Z,18.60
2018-03-27T15:32:39.873Z,21.17
2018-03-27T15:35:08.200Z,19.13
2018-03-27T15:37:36.600Z,19.20
2018-03-27T15:40:05.763Z,20.37
2018-03-27T15:42:36.258Z,18.20
2018-03-27T15:45:05.662Z,19.12
2018-03-27T15:47:33.961Z,21.40
2018-03-27T15:50:02.327Z,19.50
2018-03-27T15:52:30.652Z,18.67
2018-03-27T15:54:58.983Z,19.17
2018-03-27T15:57:27.346Z,19.33
2018-03-27T15:59:55.717Z,18.87
2018-03-27T16:02:24.085Z,19.00
2018-03-27T16:04:52.547Z,17.57
2018-03-27T16:07:20.984Z,18.20
2018-03-27T16:09:49.359Z,18.27
2018-03-27T16:12:17.702Z,18.80
2018-03-27T16:14:46.775Z,17.90
2018-03-27T16:17:15.170Z,18.55
2018-03-27T16:19:43.500Z,18.97
2018-03-27T16:22:12.540Z,18.37
2018-03-27T16:24:41.002Z,17.50
2018-03-27T16:27:09.363Z,19.20
2018-03-27T16:29:38.303Z,18.53
2018-03-27T16:32:06.648Z,17.65
2018-03-27T16:34:34.930Z,18.33
2018-03-27T16:37:03.369Z,18.73
2018-03-27T16:39:31.646Z,19.95
2018-03-27T16:41:59.958Z,18.70
2018-03-27T16:44:28.260Z,18.55
2018-03-27T16:46:56.560Z,19.03
2018-03-27T16:49:24.882Z,18.23
2018-03-27T16:51:53.226Z,18.53
2018-03-27T16:54:21.546Z,17.95
2018-03-27T16:56:49.864Z,18.37
2018-03-27T16:59:18.398Z,18.98
2018-03-27T17:01:46.762Z,18.10
2018-03-27T17:04:15.082Z,18.42
2018-03-27T17:06:43.421Z,19.13
2018-03-27T17:09:13.065Z,18.08
2018-03-27T17:11:41.408Z,17.10
2018-03-27T17:14:09.723Z,17.73
2018-03-27T17:16:38.292Z,20.10
2018-03-27T17:19:06.679Z,19.13
2018-03-27T17:21:35.029Z,17.50
2018-03-27T17:24:03.388Z,18.50
2018-03-27T17:26:31.749Z,18.60
2018-03-27T17:29:00.823Z,17.90
2018-03-27T17:31:29.116Z,18.93
2018-03-27T17:33:57.437Z,18.97
2018-03-27T17:36:25.704Z,18.77
2018-03-27T17:38:54.074Z,18.57
2018-03-27T17:41:22.342Z,19.77
2018-03-27T17:43:50.686Z,18.43
2018-03-27T17:46:18.989Z,19.07
2018-03-27T17:48:47.315Z,18.33
2018-03-27T17:51:15.599Z,17.93
2018-03-27T17:53:43.902Z,17.03
2018-03-27T17:56:12.175Z,18.08
2018-03-27T17:58:40.500Z,17.83
2018-03-27T18:01:08.838Z,17.53
2018-03-27T18:03:37.157Z,16.90
2018-03-27T18:06:06.395Z,18.73
2018-03-27T18:08:34.811Z,17.30
2018-03-27T18:11:03.116Z,16.93
2018-03-27T18:13:31.456Z,17.10
2018-03-27T18:15:59.743Z,15.13
2018-03-27T18:18:28.067Z,16.90
2018-03-27T18:20:57.293Z,16.10
2018-03-27T18:23:25.665Z,17.13
2018-03-27T18:25:54.040Z,16.60
2018-03-27T18:28:22.388Z,15.87
2018-03-27T18:30:50.745Z,15.95
2018-03-27T18:33:19.048Z,16.42
2018-03-27T18:35:47.425Z,15.93
2018-03-27T18:38:15.809Z,15.50
2018-03-27T18:40:44.168Z,16.23
2018-03-27T18:43:12.531Z,17.30
2018-03-27T18:45:40.842Z,16.10
2018-03-27T18:48:09.218Z,16.63
2018-03-27T18:50:37.637Z,15.40
2018-03-27T18:53:06.484Z,15.70
2018-03-27T18:55:34.793Z,14.93
2018-03-27T18:58:03.168Z,13.40
2018-03-27T19:00:31.458Z,15.53
2018-03-27T19:02:59.793Z,14.43
2018-03-27T19:05:28.393Z,15.43
2018-03-27T19:07:56.706Z,14.60
2018-03-27T19:10:25.066Z,13.93
2018-03-27T19:12:53.332Z,14.53
2018-03-27T19:15:22.003Z,13.98
2018-03-27T19:17:50.293Z,14.37
2018-03-27T19:20:18.570Z,14.25
2018-03-27T19:22:47.237Z,12.80
2018-03-27T19:25:15.560Z,13.43
2018-03-27T19:27:43.877Z,13.47
2018-03-27T19:30:12.185Z,12.47
2018-03-27T19:32:40.497Z,11.80
2018-03-27T19:35:08.819Z,13.23
2018-03-27T19:37:37.111Z,12.37
2018-03-27T19:40:06.129Z,32.73
2018-03-27T19:42:34.424Z,12.77
2018-03-27T19:45:02.718Z,16.40
2018-03-27T19:47:31.280Z,12.00
2018-03-27T19:50:01.026Z,11.43
2018-03-27T19:52:29.652Z,11.30
2018-03-27T19:54:58.199Z,11.67
2018-03-27T19:57:27.762Z,10.67
2018-03-27T19:59:57.048Z,11.27
2018-03-27T20:02:26.490Z,11.73
2018-03-27T20:04:55.047Z,11.17
2018-03-27T20:07:23.620Z,11.43
2018-03-27T20:09:52.077Z,10.95
2018-03-27T20:12:25.339Z,9.55
2018-03-27T20:14:53.677Z,9.32
2018-03-27T20:17:23.076Z,9.43
2018-03-27T20:19:51.932Z,9.07
2018-03-27T20:22:20.316Z,11.95
2018-03-27T20:24:50.038Z,9.88
2018-03-27T20:27:22.321Z,10.63
2018-03-27T20:29:58.923Z,9.63
2018-03-27T20:32:29.436Z,9.50
2018-03-27T20:34:57.784Z,8.80
2018-03-27T20:37:26.075Z,8.80
2018-03-27T20:39:54.376Z,9.43
2018-03-27T20:42:22.653Z,7.90
2018-03-27T20:44:51.079Z,8.90
2018-03-27T20:47:19.413Z,8.50
2018-03-27T20:49:47.746Z,9.07
2018-03-27T20:52:16.035Z,8.83
2018-03-27T20:54:44.415Z,8.60
2018-03-27T20:57:12.688Z,8.27
2018-03-27T20:59:40.998Z,7.90
2018-03-27T21:02:09.275Z,9.77
2018-03-27T21:04:37.612Z,9.03
2018-03-27T21:07:05.885Z,9.18
2018-03-27T21:09:34.224Z,8.90
2018-03-27T21:12:02.525Z,10.70
2018-03-27T21:14:30.807Z,7.57
2018-03-27T21:17:00.485Z,7.60
2018-03-27T21:19:28.864Z,7.15
2018-03-27T21:21:57.133Z,7.80
2018-03-27T21:24:25.567Z,7.40
2018-03-27T21:26:53.923Z,7.50
2018-03-27T21:29:22.216Z,7.25
2018-03-27T21:31:50.492Z,7.30
2018-03-27T21:34:18.831Z,7.17
2018-03-27T21:36:47.158Z,8.87
2018-03-27T21:39:15.455Z,8.33
2018-03-27T21:41:43.814Z,9.10
2018-03-27T21:44:12.108Z,8.80
2018-03-27T21:46:40.460Z,9.77
2018-03-27T21:49:08.732Z,9.07
2018-03-27T21:51:37.045Z,8.63
2018-03-27T21:54:05.726Z,7.70
2018-03-27T21:56:34.027Z,8.00
2018-03-27T21:59:02.298Z,7.03
2018-03-27T22:01:30.585Z,7.30
2018-03-27T22:03:58.867Z,7.70
2018-03-27T22:06:27.174Z,8.00
2018-03-27T22:08:55.518Z,8.70
2018-03-27T22:11:24.028Z,9.23
2018-03-27T22:13:52.271Z,9.20
2018-03-27T22:16:20.648Z,9.80
2018-03-27T22:18:48.967Z,9.37
2018-03-27T22:21:17.302Z,8.35
2018-03-27T22:23:45.563Z,9.70
2018-03-27T22:26:13.880Z,9.83
2018-03-27T22:28:42.387Z,8.90
2018-03-27T22:31:10.665Z,9.13
2018-03-27T22:33:39.057Z,10.20
2018-03-27T22:36:07.332Z,9.50
2018-03-27T22:38:35.656Z,9.90
2018-03-27T22:41:04.827Z,8.93
2018-03-27T22:43:33.162Z,8.67
2018-03-27T22:46:01.507Z,8.50
2018-03-27T22:48:29.978Z,8.20
2018-03-27T22:50:58.267Z,9.13
2018-03-27T22:53:26.679Z,9.40
2018-03-27T22:55:54.952Z,7.70
2018-03-27T22:58:23.264Z,7.80
2018-03-27T23:00:51.536Z,7.50
2018-03-27T23:03:19.860Z,8.90
2018-03-27T23:05:48.177Z,8.23
2018-03-27T23:08:16.464Z,7.83
2018-03-27T23:10:44.764Z,8.70
2018-03-27T23:13:13.168Z,8.85
2018-03-27T23:15:41.414Z,8.27
2018-03-27T23:18:09.692Z,8.83
2018-03-27T23:20:37.986Z,6.40
2018-03-27T23:23:06.251Z,7.50
2018-03-27T23:25:34.496Z,8.73
2018-03-27T23:28:02.758Z,9.10
2018-03-27T23:30:31.072Z,10.37
2018-03-27T23:32:59.360Z,9.13
2018-03-27T23:35:27.656Z,9.90
2018-03-27T23:37:55.930Z,9.90
2018-03-27T23:40:24.248Z,10.60
2018-03-27T23:42:52.520Z,9.60
2018-03-27T23:45:20.808Z,9.13
2018-03-27T23:47:49.083Z,9.50
2018-03-27T23:50:17.408Z,9.67
2018-03-27T23:52:45.658Z,9.20
2018-03-27T23:55:13.980Z,9.27
2018-03-27T23:57:42.272Z,7.93
